sensor_id;sensor_type;location;lat;lon;timestamp;P1;durP1;ratioP1;P2;durP2;ratioP2
26690;SDS011;14307;51.718;8.938;2023-07-31T00:00:12;4.28;;;3.08;;
26690;SDS011;14307;51.718;8.938;2023-07-31T00:02:39;4.70;;;3.75;;
26690;SDS011;14307;51.718;8.938;2023-07-31T00:05:07;4.38;;;3.42;;
26690;SDS011;14307;51.718;8.938;2023-07-31T00:07:35;6.97;;;4.03;;
26690;SDS011;14307;51.718;8.938;2023-07-31T00:10:02;5.63;;;3.65;;
26690;SDS011;14307;51.718;8.938;2023-07-31T00:12:29;5.07;;;3.83;;
26690;SDS011;14307;51.718;8.938;2023-07-31T00:14:56;4.07;;;3.67;;
26690;SDS011;14307;51.718;8.938;2023-07-31T00:17:23;7.00;;;4.00;;
26690;SDS011;14307;51.718;8.938;2023-07-31T00:19:50;4.93;;;4.30;;
26690;SDS011;14307;51.718;8.938;2023-07-31T00:22:17;6.45;;;4.72;;
26690;SDS011;14307;51.718;8.938;2023-07-31T00:24:44;6.03;;;4.20;;
26690;SDS011;14307;51.718;8.938;2023-07-31T00:27:11;6.20;;;4.55;;
26690;SDS011;14307;51.718;8.938;2023-07-31T00:29:38;5.57;;;4.57;;
26690;SDS011;14307;51.718;8.938;2023-07-31T00:32:05;6.95;;;4.43;;
26690;SDS011;14307;51.718;8.938;2023-07-31T00:34:32;8.00;;;5.32;;
26690;SDS011;14307;51.718;8.938;2023-07-31T00:36:59;6.25;;;4.68;;
26690;SDS011;14307;51.718;8.938;2023-07-31T00:39:26;11.05;;;5.57;;
26690;SDS011;14307;51.718;8.938;2023-07-31T00:41:53;6.38;;;4.63;;
26690;SDS011;14307;51.718;8.938;2023-07-31T00:44:20;6.65;;;5.03;;
26690;SDS011;14307;51.718;8.938;2023-07-31T00:46:47;7.38;;;4.72;;
26690;SDS011;14307;51.718;8.938;2023-07-31T00:49:15;6.30;;;4.25;;
26690;SDS011;14307;51.718;8.938;2023-07-31T00:51:42;6.05;;;4.85;;
26690;SDS011;14307;51.718;8.938;2023-07-31T00:54:09;7.18;;;4.70;;
26690;SDS011;14307;51.718;8.938;2023-07-31T00:56:38;8.27;;;4.90;;
26690;SDS011;14307;51.718;8.938;2023-07-31T00:59:07;7.75;;;4.97;;
26690;SDS011;14307;51.718;8.938;2023-07-31T01:01:33;5.53;;;4.72;;
26690;SDS011;14307;51.718;8.938;2023-07-31T01:04:00;6.85;;;4.30;;
26690;SDS011;14307;51.718;8.938;2023-07-31T01:06:34;7.38;;;4.38;;
26690;SDS011;14307;51.718;8.938;2023-07-31T01:12:35;7.45;;;4.22;;
26690;SDS011;14307;51.718;8.938;2023-07-31T01:17:33;6.35;;;4.32;;
26690;SDS011;14307;51.718;8.938;2023-07-31T01:20:01;4.80;;;4.20;;
26690;SDS011;14307;51.718;8.938;2023-07-31T01:25:35;8.32;;;4.55;;
26690;SDS011;14307;51.718;8.938;2023-07-31T01:28:25;7.45;;;4.38;;
26690;SDS011;14307;51.718;8.938;2023-07-31T01:30:57;7.72;;;4.60;;
26690;SDS011;14307;51.718;8.938;2023-07-31T01:33:26;6.03;;;4.30;;
26690;SDS011;14307;51.718;8.938;2023-07-31T01:35:54;6.57;;;4.55;;
26690;SDS011;14307;51.718;8.938;2023-07-31T01:38:23;9.23;;;5.47;;
26690;SDS011;14307;51.718;8.938;2023-07-31T01:40:53;6.90;;;5.32;;
26690;SDS011;14307;51.718;8.938;2023-07-31T01:43:20;7.97;;;5.30;;
26690;SDS011;14307;51.718;8.938;2023-07-31T01:45:46;10.23;;;4.78;;
26690;SDS011;14307;51.718;8.938;2023-07-31T01:48:13;9.38;;;5.28;;
26690;SDS011;14307;51.718;8.938;2023-07-31T01:50:40;9.85;;;4.72;;
26690;SDS011;14307;51.718;8.938;2023-07-31T01:53:07;9.25;;;5.72;;
26690;SDS011;14307;51.718;8.938;2023-07-31T01:55:34;7.78;;;5.63;;
26690;SDS011;14307;51.718;8.938;2023-07-31T01:58:01;8.88;;;5.32;;
26690;SDS011;14307;51.718;8.938;2023-07-31T02:00:28;8.77;;;5.15;;
26690;SDS011;14307;51.718;8.938;2023-07-31T02:02:55;10.07;;;5.25;;
26690;SDS011;14307;51.718;8.938;2023-07-31T02:05:22;8.65;;;5.47;;
26690;SDS011;14307;51.718;8.938;2023-07-31T02:07:49;5.32;;;3.83;;
26690;SDS011;14307;51.718;8.938;2023-07-31T02:10:16;6.80;;;4.03;;
26690;SDS011;14307;51.718;8.938;2023-07-31T02:12:43;7.25;;;3.70;;
26690;SDS011;14307;51.718;8.938;2023-07-31T04:20:05;13.43;;;5.78;;
26690;SDS011;14307;51.718;8.938;2023-07-31T04:22:32;15.77;;;5.90;;
26690;SDS011;14307;51.718;8.938;2023-07-31T04:24:59;14.32;;;6.03;;
26690;SDS011;14307;51.718;8.938;2023-07-31T04:27:26;16.48;;;5.65;;
26690;SDS011;14307;51.718;8.938;2023-07-31T04:29:53;12.18;;;4.88;;
26690;SDS011;14307;51.718;8.938;2023-07-31T04:32:20;12.95;;;6.55;;
26690;SDS011;14307;51.718;8.938;2023-07-31T04:34:47;14.45;;;5.80;;
26690;SDS011;14307;51.718;8.938;2023-07-31T04:37:14;14.57;;;7.38;;
26690;SDS011;14307;51.718;8.938;2023-07-31T04:39:41;14.35;;;5.80;;
26690;SDS011;14307;51.718;8.938;2023-07-31T04:42:08;19.15;;;6.88;;
26690;SDS011;14307;51.718;8.938;2023-07-31T04:44:35;17.95;;;6.85;;
26690;SDS011;14307;51.718;8.938;2023-07-31T04:47:02;19.17;;;7.85;;
26690;SDS011;14307;51.718;8.938;2023-07-31T04:49:29;15.60;;;7.38;;
26690;SDS011;14307;51.718;8.938;2023-07-31T04:51:56;21.17;;;7.35;;
26690;SDS011;14307;51.718;8.938;2023-07-31T04:54:22;12.75;;;7.30;;
26690;SDS011;14307;51.718;8.938;2023-07-31T04:56:52;16.23;;;6.78;;
26690;SDS011;14307;51.718;8.938;2023-07-31T04:59:20;11.52;;;5.53;;
26690;SDS011;14307;51.718;8.938;2023-07-31T05:01:47;13.55;;;5.82;;
26690;SDS011;14307;51.718;8.938;2023-07-31T05:04:14;14.30;;;6.30;;
26690;SDS011;14307;51.718;8.938;2023-07-31T05:06:41;15.18;;;5.93;;
26690;SDS011;14307;51.718;8.938;2023-07-31T05:09:08;12.98;;;6.80;;
26690;SDS011;14307;51.718;8.938;2023-07-31T05:11:35;13.15;;;7.88;;
26690;SDS011;14307;51.718;8.938;2023-07-31T05:14:02;14.60;;;7.70;;
26690;SDS011;14307;51.718;8.938;2023-07-31T05:16:29;12.35;;;7.38;;
26690;SDS011;14307;51.718;8.938;2023-07-31T05:18:56;12.20;;;8.43;;
26690;SDS011;14307;51.718;8.938;2023-07-31T05:21:23;13.93;;;7.90;;
26690;SDS011;14307;51.718;8.938;2023-07-31T05:23:50;12.43;;;7.07;;
26690;SDS011;14307;51.718;8.938;2023-07-31T05:26:17;14.07;;;7.85;;
26690;SDS011;14307;51.718;8.938;2023-07-31T05:28:44;15.80;;;7.30;;
26690;SDS011;14307;51.718;8.938;2023-07-31T05:31:11;13.82;;;8.27;;
26690;SDS011;14307;51.718;8.938;2023-07-31T05:33:39;14.98;;;8.20;;
26690;SDS011;14307;51.718;8.938;2023-07-31T05:36:05;14.80;;;9.30;;
26690;SDS011;14307;51.718;8.938;2023-07-31T05:38:32;15.73;;;9.20;;
26690;SDS011;14307;51.718;8.938;2023-07-31T05:40:59;15.68;;;8.73;;
26690;SDS011;14307;51.718;8.938;2023-07-31T05:43:26;18.40;;;9.02;;
26690;SDS011;14307;51.718;8.938;2023-07-31T05:45:53;13.43;;;9.70;;
26690;SDS011;14307;51.718;8.938;2023-07-31T05:48:20;11.25;;;8.52;;
26690;SDS011;14307;51.718;8.938;2023-07-31T05:50:46;11.50;;;8.93;;
26690;SDS011;14307;51.718;8.938;2023-07-31T05:53:13;17.02;;;10.68;;
26690;SDS011;14307;51.718;8.938;2023-07-31T05:55:40;12.55;;;9.52;;
26690;SDS011;14307;51.718;8.938;2023-07-31T05:58:07;17.02;;;9.90;;
26690;SDS011;14307;51.718;8.938;2023-07-31T06:00:34;13.88;;;9.55;;
26690;SDS011;14307;51.718;8.938;2023-07-31T06:03:01;21.92;;;10.63;;
26690;SDS011;14307;51.718;8.938;2023-07-31T06:05:28;15.05;;;9.73;;
26690;SDS011;14307;51.718;8.938;2023-07-31T06:07:56;19.80;;;10.40;;
26690;SDS011;14307;51.718;8.938;2023-07-31T06:10:23;20.20;;;10.20;;
26690;SDS011;14307;51.718;8.938;2023-07-31T06:12:50;20.38;;;10.35;;
26690;SDS011;14307;51.718;8.938;2023-07-31T06:15:17;18.67;;;12.13;;
26690;SDS011;14307;51.718;8.938;2023-07-31T06:17:47;15.18;;;9.93;;
26690;SDS011;14307;51.718;8.938;2023-07-31T06:20:14;17.73;;;9.43;;
26690;SDS011;14307;51.718;8.938;2023-07-31T06:22:41;16.30;;;9.50;;
26690;SDS011;14307;51.718;8.938;2023-07-31T06:25:08;15.80;;;9.43;;
26690;SDS011;14307;51.718;8.938;2023-07-31T06:27:39;15.05;;;9.38;;
26690;SDS011;14307;51.718;8.938;2023-07-31T06:30:06;14.38;;;9.98;;
26690;SDS011;14307;51.718;8.938;2023-07-31T06:32:33;12.30;;;9.48;;
26690;SDS011;14307;51.718;8.938;2023-07-31T06:35:00;16.65;;;10.77;;
26690;SDS011;14307;51.718;8.938;2023-07-31T06:37:27;21.70;;;10.07;;
26690;SDS011;14307;51.718;8.938;2023-07-31T06:39:54;15.02;;;10.32;;
26690;SDS011;14307;51.718;8.938;2023-07-31T06:42:21;17.38;;;10.82;;
26690;SDS011;14307;51.718;8.938;2023-07-31T06:44:48;14.70;;;8.95;;
26690;SDS011;14307;51.718;8.938;2023-07-31T06:47:15;18.52;;;9.77;;
26690;SDS011;14307;51.718;8.938;2023-07-31T06:49:42;16.90;;;9.15;;
26690;SDS011;14307;51.718;8.938;2023-07-31T06:52:09;16.42;;;9.82;;
26690;SDS011;14307;51.718;8.938;2023-07-31T06:54:37;15.85;;;10.23;;
26690;SDS011;14307;51.718;8.938;2023-07-31T06:57:04;17.98;;;10.32;;
26690;SDS011;14307;51.718;8.938;2023-07-31T06:59:31;13.57;;;9.38;;
26690;SDS011;14307;51.718;8.938;2023-07-31T07:01:58;13.57;;;9.73;;
26690;SDS011;14307;51.718;8.938;2023-07-31T07:04:25;18.42;;;9.00;;
26690;SDS011;14307;51.718;8.938;2023-07-31T07:06:52;13.75;;;8.68;;
26690;SDS011;14307;51.718;8.938;2023-07-31T07:09:19;14.75;;;8.75;;
26690;SDS011;14307;51.718;8.938;2023-07-31T07:11:46;15.30;;;8.98;;
26690;SDS011;14307;51.718;8.938;2023-07-31T07:14:13;17.25;;;9.18;;
26690;SDS011;14307;51.718;8.938;2023-07-31T07:16:40;15.23;;;9.98;;
26690;SDS011;14307;51.718;8.938;2023-07-31T07:19:07;15.35;;;9.25;;
26690;SDS011;14307;51.718;8.938;2023-07-31T07:21:34;14.07;;;9.07;;
26690;SDS011;14307;51.718;8.938;2023-07-31T07:24:01;17.80;;;9.27;;
26690;SDS011;14307;51.718;8.938;2023-07-31T07:26:28;14.75;;;9.38;;
26690;SDS011;14307;51.718;8.938;2023-07-31T07:28:55;14.13;;;8.85;;
26690;SDS011;14307;51.718;8.938;2023-07-31T07:31:23;10.55;;;8.02;;
26690;SDS011;14307;51.718;8.938;2023-07-31T07:33:50;11.25;;;8.90;;
26690;SDS011;14307;51.718;8.938;2023-07-31T07:36:17;15.90;;;8.25;;
26690;SDS011;14307;51.718;8.938;2023-07-31T07:38:44;20.65;;;9.93;;
26690;SDS011;14307;51.718;8.938;2023-07-31T07:41:11;19.20;;;8.50;;
26690;SDS011;14307;51.718;8.938;2023-07-31T07:43:38;22.15;;;10.48;;
26690;SDS011;14307;51.718;8.938;2023-07-31T07:46:05;22.27;;;9.82;;
26690;SDS011;14307;51.718;8.938;2023-07-31T07:48:31;16.50;;;9.43;;
26690;SDS011;14307;51.718;8.938;2023-07-31T07:50:58;17.23;;;9.25;;
26690;SDS011;14307;51.718;8.938;2023-07-31T07:53:25;19.48;;;9.20;;
26690;SDS011;14307;51.718;8.938;2023-07-31T07:55:52;15.95;;;8.55;;
26690;SDS011;14307;51.718;8.938;2023-07-31T07:58:19;16.92;;;10.00;;
26690;SDS011;14307;51.718;8.938;2023-07-31T08:00:52;17.30;;;9.05;;
26690;SDS011;14307;51.718;8.938;2023-07-31T08:03:19;16.48;;;9.80;;
26690;SDS011;14307;51.718;8.938;2023-07-31T08:05:47;17.58;;;9.55;;
26690;SDS011;14307;51.718;8.938;2023-07-31T08:08:17;22.77;;;9.73;;
26690;SDS011;14307;51.718;8.938;2023-07-31T08:10:43;19.35;;;10.02;;
26690;SDS011;14307;51.718;8.938;2023-07-31T08:13:13;18.45;;;10.65;;
26690;SDS011;14307;51.718;8.938;2023-07-31T08:15:43;21.80;;;9.45;;
26690;SDS011;14307;51.718;8.938;2023-07-31T08:18:10;18.38;;;11.25;;
26690;SDS011;14307;51.718;8.938;2023-07-31T08:20:38;20.70;;;10.52;;
26690;SDS011;14307;51.718;8.938;2023-07-31T08:23:05;19.65;;;9.68;;
26690;SDS011;14307;51.718;8.938;2023-07-31T08:25:34;22.23;;;13.07;;
26690;SDS011;14307;51.718;8.938;2023-07-31T08:28:02;17.25;;;10.23;;
26690;SDS011;14307;51.718;8.938;2023-07-31T08:30:29;26.33;;;12.20;;
26690;SDS011;14307;51.718;8.938;2023-07-31T08:32:56;17.42;;;10.68;;
26690;SDS011;14307;51.718;8.938;2023-07-31T08:35:24;19.25;;;12.55;;
26690;SDS011;14307;51.718;8.938;2023-07-31T08:37:51;18.13;;;12.10;;
26690;SDS011;14307;51.718;8.938;2023-07-31T08:40:18;20.73;;;10.82;;
26690;SDS011;14307;51.718;8.938;2023-07-31T08:42:49;19.73;;;11.20;;
26690;SDS011;14307;51.718;8.938;2023-07-31T08:45:20;20.35;;;11.68;;
26690;SDS011;14307;51.718;8.938;2023-07-31T08:47:49;18.08;;;10.13;;
26690;SDS011;14307;51.718;8.938;2023-07-31T08:50:18;13.27;;;9.50;;
26690;SDS011;14307;51.718;8.938;2023-07-31T08:52:47;18.13;;;9.60;;
26690;SDS011;14307;51.718;8.938;2023-07-31T08:55:15;13.98;;;9.02;;
26690;SDS011;14307;51.718;8.938;2023-07-31T08:57:42;16.70;;;9.43;;
26690;SDS011;14307;51.718;8.938;2023-07-31T09:00:10;14.55;;;8.43;;
26690;SDS011;14307;51.718;8.938;2023-07-31T09:02:44;16.65;;;8.68;;
26690;SDS011;14307;51.718;8.938;2023-07-31T09:05:13;13.50;;;8.05;;
26690;SDS011;14307;51.718;8.938;2023-07-31T09:07:42;11.13;;;7.00;;
26690;SDS011;14307;51.718;8.938;2023-07-31T09:10:12;12.48;;;7.82;;
26690;SDS011;14307;51.718;8.938;2023-07-31T09:12:39;15.73;;;8.50;;
26690;SDS011;14307;51.718;8.938;2023-07-31T09:15:07;7.93;;;6.47;;
26690;SDS011;14307;51.718;8.938;2023-07-31T09:17:46;11.20;;;7.45;;
26690;SDS011;14307;51.718;8.938;2023-07-31T09:22:44;13.02;;;7.28;;
26690;SDS011;14307;51.718;8.938;2023-07-31T09:27:57;13.10;;;6.95;;
26690;SDS011;14307;51.718;8.938;2023-07-31T09:30:25;9.38;;;6.65;;
26690;SDS011;14307;51.718;8.938;2023-07-31T09:33:05;10.95;;;7.07;;
26690;SDS011;14307;51.718;8.938;2023-07-31T09:35:34;8.00;;;5.80;;
26690;SDS011;14307;51.718;8.938;2023-07-31T09:38:05;6.82;;;6.13;;
26690;SDS011;14307;51.718;8.938;2023-07-31T09:40:37;11.15;;;6.80;;
26690;SDS011;14307;51.718;8.938;2023-07-31T09:43:07;8.77;;;6.68;;
26690;SDS011;14307;51.718;8.938;2023-07-31T09:45:40;7.90;;;6.70;;
26690;SDS011;14307;51.718;8.938;2023-07-31T09:48:13;7.25;;;6.55;;
26690;SDS011;14307;51.718;8.938;2023-07-31T09:50:44;8.73;;;7.05;;
26690;SDS011;14307;51.718;8.938;2023-07-31T09:53:13;8.00;;;7.20;;
26690;SDS011;14307;51.718;8.938;2023-07-31T09:55:42;9.48;;;8.43;;
26690;SDS011;14307;51.718;8.938;2023-07-31T09:58:10;8.20;;;7.35;;
26690;SDS011;14307;51.718;8.938;2023-07-31T10:00:38;8.07;;;7.28;;
26690;SDS011;14307;51.718;8.938;2023-07-31T10:03:06;10.73;;;7.40;;
26690;SDS011;14307;51.718;8.938;2023-07-31T10:05:38;9.73;;;7.75;;
26690;SDS011;14307;51.718;8.938;2023-07-31T10:08:14;8.60;;;7.85;;
26690;SDS011;14307;51.718;8.938;2023-07-31T10:10:43;8.48;;;7.72;;
26690;SDS011;14307;51.718;8.938;2023-07-31T10:13:11;8.65;;;7.82;;
26690;SDS011;14307;51.718;8.938;2023-07-31T10:15:39;8.93;;;8.07;;
26690;SDS011;14307;51.718;8.938;2023-07-31T10:18:07;9.23;;;8.30;;
26690;SDS011;14307;51.718;8.938;2023-07-31T10:20:35;8.90;;;8.20;;
26690;SDS011;14307;51.718;8.938;2023-07-31T10:23:03;8.40;;;7.70;;
26690;SDS011;14307;51.718;8.938;2023-07-31T10:25:30;8.85;;;8.00;;
26690;SDS011;14307;51.718;8.938;2023-07-31T10:27:58;8.00;;;7.20;;
26690;SDS011;14307;51.718;8.938;2023-07-31T10:30:26;7.72;;;7.03;;
26690;SDS011;14307;51.718;8.938;2023-07-31T10:32:57;7.85;;;7.25;;
26690;SDS011;14307;51.718;8.938;2023-07-31T10:35:25;8.98;;;8.23;;
26690;SDS011;14307;51.718;8.938;2023-07-31T10:37:52;10.90;;;8.75;;
26690;SDS011;14307;51.718;8.938;2023-07-31T10:40:19;8.43;;;7.63;;
26690;SDS011;14307;51.718;8.938;2023-07-31T10:42:54;10.02;;;7.68;;
26690;SDS011;14307;51.718;8.938;2023-07-31T10:45:36;8.77;;;7.97;;
26690;SDS011;14307;51.718;8.938;2023-07-31T10:48:17;7.85;;;7.25;;
26690;SDS011;14307;51.718;8.938;2023-07-31T10:53:31;9.20;;;6.80;;
26690;SDS011;14307;51.718;8.938;2023-07-31T10:56:03;7.97;;;5.93;;
26690;SDS011;14307;51.718;8.938;2023-07-31T10:58:32;6.50;;;5.90;;
26690;SDS011;14307;51.718;8.938;2023-07-31T11:01:00;7.80;;;6.00;;
26690;SDS011;14307;51.718;8.938;2023-07-31T11:03:45;7.88;;;5.07;;
26690;SDS011;14307;51.718;8.938;2023-07-31T11:06:18;5.07;;;4.45;;
26690;SDS011;14307;51.718;8.938;2023-07-31T11:08:46;5.78;;;4.47;;
26690;SDS011;14307;51.718;8.938;2023-07-31T11:11:18;6.15;;;4.65;;
26690;SDS011;14307;51.718;8.938;2023-07-31T11:13:47;7.10;;;3.72;;
26690;SDS011;14307;51.718;8.938;2023-07-31T11:16:24;7.07;;;4.20;;
26690;SDS011;14307;51.718;8.938;2023-07-31T11:18:52;5.93;;;3.80;;
26690;SDS011;14307;51.718;8.938;2023-07-31T11:21:22;4.00;;;3.20;;
26690;SDS011;14307;51.718;8.938;2023-07-31T11:23:52;4.65;;;3.40;;
26690;SDS011;14307;51.718;8.938;2023-07-31T11:26:24;4.15;;;2.75;;
26690;SDS011;14307;51.718;8.938;2023-07-31T11:28:51;3.05;;;2.50;;
26690;SDS011;14307;51.718;8.938;2023-07-31T11:31:18;3.30;;;2.58;;
26690;SDS011;14307;51.718;8.938;2023-07-31T11:33:45;2.90;;;2.20;;
26690;SDS011;14307;51.718;8.938;2023-07-31T11:36:17;2.63;;;2.03;;
26690;SDS011;14307;51.718;8.938;2023-07-31T11:38:45;3.20;;;1.85;;
26690;SDS011;14307;51.718;8.938;2023-07-31T11:41:13;2.72;;;2.25;;
26690;SDS011;14307;51.718;8.938;2023-07-31T11:43:45;2.78;;;2.58;;
26690;SDS011;14307;51.718;8.938;2023-07-31T11:46:13;2.55;;;2.30;;
26690;SDS011;14307;51.718;8.938;2023-07-31T11:48:41;2.25;;;2.05;;
26690;SDS011;14307;51.718;8.938;2023-07-31T11:51:10;1.80;;;1.70;;
26690;SDS011;14307;51.718;8.938;2023-07-31T11:53:41;2.67;;;2.47;;
26690;SDS011;14307;51.718;8.938;2023-07-31T11:56:20;2.67;;;2.47;;
26690;SDS011;14307;51.718;8.938;2023-07-31T11:58:50;2.80;;;2.60;;
26690;SDS011;14307;51.718;8.938;2023-07-31T12:01:26;3.90;;;2.80;;
26690;SDS011;14307;51.718;8.938;2023-07-31T12:03:54;3.35;;;3.03;;
26690;SDS011;14307;51.718;8.938;2023-07-31T12:06:32;2.95;;;2.67;;
26690;SDS011;14307;51.718;8.938;2023-07-31T12:09:03;2.63;;;2.40;;
26690;SDS011;14307;51.718;8.938;2023-07-31T12:11:31;3.63;;;2.78;;
26690;SDS011;14307;51.718;8.938;2023-07-31T12:14:08;3.00;;;2.42;;
26690;SDS011;14307;51.718;8.938;2023-07-31T12:16:55;2.10;;;1.90;;
26690;SDS011;14307;51.718;8.938;2023-07-31T12:19:27;2.17;;;1.98;;
26690;SDS011;14307;51.718;8.938;2023-07-31T12:21:56;4.55;;;2.53;;
26690;SDS011;14307;51.718;8.938;2023-07-31T12:24:25;2.15;;;1.95;;
26690;SDS011;14307;51.718;8.938;2023-07-31T12:26:52;3.00;;;1.42;;
26690;SDS011;14307;51.718;8.938;2023-07-31T12:29:21;3.20;;;1.45;;
26690;SDS011;14307;51.718;8.938;2023-07-31T12:31:48;2.13;;;1.65;;
26690;SDS011;14307;51.718;8.938;2023-07-31T12:34:19;1.90;;;1.55;;
26690;SDS011;14307;51.718;8.938;2023-07-31T12:36:49;2.25;;;1.90;;
26690;SDS011;14307;51.718;8.938;2023-07-31T12:39:19;2.90;;;2.10;;
26690;SDS011;14307;51.718;8.938;2023-07-31T12:41:47;3.65;;;1.58;;
26690;SDS011;14307;51.718;8.938;2023-07-31T12:44:13;3.10;;;1.90;;
26690;SDS011;14307;51.718;8.938;2023-07-31T12:46:40;2.00;;;1.75;;
26690;SDS011;14307;51.718;8.938;2023-07-31T12:49:08;2.60;;;2.25;;
26690;SDS011;14307;51.718;8.938;2023-07-31T12:51:35;2.10;;;2.00;;
26690;SDS011;14307;51.718;8.938;2023-07-31T12:54:02;2.35;;;2.03;;
26690;SDS011;14307;51.718;8.938;2023-07-31T12:56:30;3.20;;;2.85;;
26690;SDS011;14307;51.718;8.938;2023-07-31T12:58:56;3.80;;;3.60;;
26690;SDS011;14307;51.718;8.938;2023-07-31T13:01:24;3.95;;;3.65;;
26690;SDS011;14307;51.718;8.938;2023-07-31T13:03:51;6.60;;;4.18;;
26690;SDS011;14307;51.718;8.938;2023-07-31T13:06:18;4.63;;;4.32;;
26690;SDS011;14307;51.718;8.938;2023-07-31T13:08:45;4.45;;;4.05;;
26690;SDS011;14307;51.718;8.938;2023-07-31T13:11:12;4.82;;;4.53;;
26690;SDS011;14307;51.718;8.938;2023-07-31T13:13:39;4.72;;;4.38;;
26690;SDS011;14307;51.718;8.938;2023-07-31T13:16:06;4.93;;;4.60;;
26690;SDS011;14307;51.718;8.938;2023-07-31T13:18:33;5.30;;;4.90;;
26690;SDS011;14307;51.718;8.938;2023-07-31T13:20:59;5.03;;;4.60;;
26690;SDS011;14307;51.718;8.938;2023-07-31T13:23:27;4.50;;;4.20;;
26690;SDS011;14307;51.718;8.938;2023-07-31T13:25:53;4.68;;;4.20;;
26690;SDS011;14307;51.718;8.938;2023-07-31T13:28:21;4.43;;;4.13;;
26690;SDS011;14307;51.718;8.938;2023-07-31T13:30:47;4.63;;;4.22;;
26690;SDS011;14307;51.718;8.938;2023-07-31T13:33:14;4.70;;;4.30;;
26690;SDS011;14307;51.718;8.938;2023-07-31T13:36:00;4.10;;;3.60;;
26690;SDS011;14307;51.718;8.938;2023-07-31T13:38:27;4.53;;;4.13;;
26690;SDS011;14307;51.718;8.938;2023-07-31T13:40:53;4.68;;;4.28;;
26690;SDS011;14307;51.718;8.938;2023-07-31T13:43:20;4.80;;;4.40;;
26690;SDS011;14307;51.718;8.938;2023-07-31T13:45:47;4.20;;;3.80;;
26690;SDS011;14307;51.718;8.938;2023-07-31T13:48:14;4.53;;;4.13;;
26690;SDS011;14307;51.718;8.938;2023-07-31T13:50:41;4.90;;;3.95;;
26690;SDS011;14307;51.718;8.938;2023-07-31T13:53:08;4.75;;;4.20;;
26690;SDS011;14307;51.718;8.938;2023-07-31T13:55:35;3.97;;;3.42;;
26690;SDS011;14307;51.718;8.938;2023-07-31T13:58:02;4.03;;;3.58;;
26690;SDS011;14307;51.718;8.938;2023-07-31T14:00:31;4.00;;;3.70;;
26690;SDS011;14307;51.718;8.938;2023-07-31T14:02:58;4.88;;;3.95;;
26690;SDS011;14307;51.718;8.938;2023-07-31T14:05:25;5.22;;;3.75;;
26690;SDS011;14307;51.718;8.938;2023-07-31T14:07:52;4.40;;;3.70;;
26690;SDS011;14307;51.718;8.938;2023-07-31T14:10:20;7.05;;;4.20;;
26690;SDS011;14307;51.718;8.938;2023-07-31T14:12:46;4.28;;;3.85;;
26690;SDS011;14307;51.718;8.938;2023-07-31T14:15:13;5.40;;;4.20;;
26690;SDS011;14307;51.718;8.938;2023-07-31T14:17:40;4.30;;;3.90;;
26690;SDS011;14307;51.718;8.938;2023-07-31T14:20:08;4.28;;;3.58;;
26690;SDS011;14307;51.718;8.938;2023-07-31T14:22:35;4.57;;;4.15;;
26690;SDS011;14307;51.718;8.938;2023-07-31T14:25:04;5.15;;;4.13;;
26690;SDS011;14307;51.718;8.938;2023-07-31T14:27:31;4.60;;;3.83;;
26690;SDS011;14307;51.718;8.938;2023-07-31T14:29:58;5.50;;;4.10;;
26690;SDS011;14307;51.718;8.938;2023-07-31T14:32:25;4.95;;;4.10;;
26690;SDS011;14307;51.718;8.938;2023-07-31T14:34:52;5.50;;;4.00;;
26690;SDS011;14307;51.718;8.938;2023-07-31T14:37:20;5.38;;;4.20;;
26690;SDS011;14307;51.718;8.938;2023-07-31T14:39:47;4.72;;;3.90;;
26690;SDS011;14307;51.718;8.938;2023-07-31T14:42:14;4.32;;;3.92;;
26690;SDS011;14307;51.718;8.938;2023-07-31T14:44:42;5.05;;;4.20;;
26690;SDS011;14307;51.718;8.938;2023-07-31T14:47:09;6.72;;;3.97;;
26690;SDS011;14307;51.718;8.938;2023-07-31T14:49:36;5.55;;;4.30;;
26690;SDS011;14307;51.718;8.938;2023-07-31T14:52:03;6.90;;;4.10;;
26690;SDS011;14307;51.718;8.938;2023-07-31T14:54:30;7.78;;;4.68;;
26690;SDS011;14307;51.718;8.938;2023-07-31T14:56:57;9.45;;;4.78;;
26690;SDS011;14307;51.718;8.938;2023-07-31T14:59:24;7.68;;;4.85;;
26690;SDS011;14307;51.718;8.938;2023-07-31T15:01:51;9.35;;;5.60;;
26690;SDS011;14307;51.718;8.938;2023-07-31T15:04:18;7.07;;;4.75;;
26690;SDS011;14307;51.718;8.938;2023-07-31T15:06:47;6.93;;;5.40;;
26690;SDS011;14307;51.718;8.938;2023-07-31T15:09:14;8.40;;;5.55;;
26690;SDS011;14307;51.718;8.938;2023-07-31T15:11:41;8.73;;;5.00;;
26690;SDS011;14307;51.718;8.938;2023-07-31T15:14:08;6.40;;;5.30;;
26690;SDS011;14307;51.718;8.938;2023-07-31T15:16:35;7.05;;;5.57;;
26690;SDS011;14307;51.718;8.938;2023-07-31T15:19:02;10.27;;;5.05;;
26690;SDS011;14307;51.718;8.938;2023-07-31T15:21:30;6.40;;;4.45;;
26690;SDS011;14307;51.718;8.938;2023-07-31T15:23:56;7.10;;;5.82;;
26690;SDS011;14307;51.718;8.938;2023-07-31T15:26:23;6.40;;;5.25;;
26690;SDS011;14307;51.718;8.938;2023-07-31T15:28:55;7.57;;;5.25;;
26690;SDS011;14307;51.718;8.938;2023-07-31T15:31:26;8.82;;;6.18;;
26690;SDS011;14307;51.718;8.938;2023-07-31T15:33:53;9.18;;;4.90;;
26690;SDS011;14307;51.718;8.938;2023-07-31T15:36:20;5.70;;;4.75;;
26690;SDS011;14307;51.718;8.938;2023-07-31T15:38:47;7.15;;;5.55;;
26690;SDS011;14307;51.718;8.938;2023-07-31T15:41:17;8.43;;;5.70;;
26690;SDS011;14307;51.718;8.938;2023-07-31T15:43:47;7.13;;;5.47;;
26690;SDS011;14307;51.718;8.938;2023-07-31T15:46:14;8.40;;;5.35;;
26690;SDS011;14307;51.718;8.938;2023-07-31T15:48:41;7.38;;;5.55;;
26690;SDS011;14307;51.718;8.938;2023-07-31T15:51:09;5.90;;;5.30;;
26690;SDS011;14307;51.718;8.938;2023-07-31T15:53:36;7.22;;;5.70;;
26690;SDS011;14307;51.718;8.938;2023-07-31T15:56:03;9.02;;;5.45;;
26690;SDS011;14307;51.718;8.938;2023-07-31T15:58:30;5.95;;;5.15;;
26690;SDS011;14307;51.718;8.938;2023-07-31T16:00:57;7.35;;;6.00;;
26690;SDS011;14307;51.718;8.938;2023-07-31T16:03:24;5.28;;;4.78;;
26690;SDS011;14307;51.718;8.938;2023-07-31T16:05:51;5.95;;;5.32;;
26690;SDS011;14307;51.718;8.938;2023-07-31T16:08:18;5.43;;;4.55;;
26690;SDS011;14307;51.718;8.938;2023-07-31T16:10:45;4.80;;;4.40;;
26690;SDS011;14307;51.718;8.938;2023-07-31T16:13:12;4.95;;;4.45;;
26690;SDS011;14307;51.718;8.938;2023-07-31T16:15:39;7.65;;;5.63;;
26690;SDS011;14307;51.718;8.938;2023-07-31T16:18:06;7.05;;;4.53;;
26690;SDS011;14307;51.718;8.938;2023-07-31T16:20:34;6.07;;;4.68;;
26690;SDS011;14307;51.718;8.938;2023-07-31T16:23:01;8.63;;;5.93;;
26690;SDS011;14307;51.718;8.938;2023-07-31T16:25:31;5.57;;;5.00;;
26690;SDS011;14307;51.718;8.938;2023-07-31T16:27:58;5.47;;;4.97;;
26690;SDS011;14307;51.718;8.938;2023-07-31T16:30:25;6.75;;;5.72;;
26690;SDS011;14307;51.718;8.938;2023-07-31T16:32:52;5.85;;;5.15;;
26690;SDS011;14307;51.718;8.938;2023-07-31T16:35:19;5.63;;;5.22;;
26690;SDS011;14307;51.718;8.938;2023-07-31T16:37:47;6.88;;;6.28;;
26690;SDS011;14307;51.718;8.938;2023-07-31T16:40:14;7.63;;;6.82;;
26690;SDS011;14307;51.718;8.938;2023-07-31T16:42:40;6.07;;;5.57;;
26690;SDS011;14307;51.718;8.938;2023-07-31T16:45:07;6.72;;;5.70;;
26690;SDS011;14307;51.718;8.938;2023-07-31T16:47:34;7.80;;;6.97;;
26690;SDS011;14307;51.718;8.938;2023-07-31T16:50:05;7.28;;;6.57;;
26690;SDS011;14307;51.718;8.938;2023-07-31T16:52:32;8.45;;;7.60;;
26690;SDS011;14307;51.718;8.938;2023-07-31T16:54:59;6.32;;;5.82;;
26690;SDS011;14307;51.718;8.938;2023-07-31T16:57:26;8.82;;;6.80;;
26690;SDS011;14307;51.718;8.938;2023-07-31T16:59:53;8.23;;;7.22;;
26690;SDS011;14307;51.718;8.938;2023-07-31T17:02:19;8.70;;;6.78;;
26690;SDS011;14307;51.718;8.938;2023-07-31T17:04:47;7.07;;;6.47;;
26690;SDS011;14307;51.718;8.938;2023-07-31T17:07:14;8.07;;;6.82;;